sensor_id;sensor_type;location;lat;lon;timestamp;P1;durP1;ratioP1;P2;durP2;ratioP2
6785;SDS011;3430;51.192;6.048;2022-07-12T00:02:25;1.60;;;1.23;;
6785;SDS011;3430;51.192;6.048;2022-07-12T00:04:50;1.57;;;1.47;;
6785;SDS011;3430;51.192;6.048;2022-07-12T00:07:16;1.57;;;1.47;;
6785;SDS011;3430;51.192;6.048;2022-07-12T00:09:42;1.40;;;1.30;;
6785;SDS011;3430;51.192;6.048;2022-07-12T00:12:08;1.50;;;1.40;;
6785;SDS011;3430;51.192;6.048;2022-07-12T00:14:33;1.60;;;1.50;;
6785;SDS011;3430;51.192;6.048;2022-07-12T00:16:59;1.53;;;1.43;;
6785;SDS011;3430;51.192;6.048;2022-07-12T00:19:25;1.50;;;1.40;;
6785;SDS011;3430;51.192;6.048;2022-07-12T00:21:50;1.50;;;1.40;;
6785;SDS011;3430;51.192;6.048;2022-07-12T00:24:15;1.47;;;1.37;;
6785;SDS011;3430;51.192;6.048;2022-07-12T00:26:41;1.50;;;1.40;;
6785;SDS011;3430;51.192;6.048;2022-07-12T00:29:06;1.30;;;1.20;;
6785;SDS011;3430;51.192;6.048;2022-07-12T00:31:31;1.50;;;1.40;;
6785;SDS011;3430;51.192;6.048;2022-07-12T00:33:57;1.50;;;1.40;;
6785;SDS011;3430;51.192;6.048;2022-07-12T00:36:22;1.47;;;1.37;;
6785;SDS011;3430;51.192;6.048;2022-07-12T00:38:47;1.50;;;1.40;;
6785;SDS011;3430;51.192;6.048;2022-07-12T00:41:13;1.30;;;1.20;;
6785;SDS011;3430;51.192;6.048;2022-07-12T00:43:38;1.40;;;1.30;;
6785;SDS011;3430;51.192;6.048;2022-07-12T00:46:03;1.50;;;1.40;;
6785;SDS011;3430;51.192;6.048;2022-07-12T00:48:30;1.30;;;1.20;;
6785;SDS011;3430;51.192;6.048;2022-07-12T00:50:56;3.40;;;1.40;;
6785;SDS011;3430;51.192;6.048;2022-07-12T00:53:21;1.30;;;1.20;;
6785;SDS011;3430;51.192;6.048;2022-07-12T00:55:52;1.77;;;1.67;;
6785;SDS011;3430;51.192;6.048;2022-07-12T00:58:18;1.57;;;1.20;;
6785;SDS011;3430;51.192;6.048;2022-07-12T01:00:44;1.50;;;1.40;;
6785;SDS011;3430;51.192;6.048;2022-07-12T01:03:10;1.30;;;1.20;;
6785;SDS011;3430;51.192;6.048;2022-07-12T01:05:35;1.50;;;1.40;;
6785;SDS011;3430;51.192;6.048;2022-07-12T01:08:00;2.07;;;1.47;;
6785;SDS011;3430;51.192;6.048;2022-07-12T01:10:26;1.30;;;1.20;;
6785;SDS011;3430;51.192;6.048;2022-07-12T01:12:53;1.60;;;1.50;;
6785;SDS011;3430;51.192;6.048;2022-07-12T01:15:23;1.37;;;1.27;;
6785;SDS011;3430;51.192;6.048;2022-07-12T01:17:48;1.20;;;1.10;;
6785;SDS011;3430;51.192;6.048;2022-07-12T01:20:14;2.13;;;1.50;;
6785;SDS011;3430;51.192;6.048;2022-07-12T01:22:39;1.33;;;1.23;;
6785;SDS011;3430;51.192;6.048;2022-07-12T01:25:08;1.60;;;1.50;;
6785;SDS011;3430;51.192;6.048;2022-07-12T01:27:33;1.30;;;1.20;;
6785;SDS011;3430;51.192;6.048;2022-07-12T01:30:00;1.30;;;1.20;;
6785;SDS011;3430;51.192;6.048;2022-07-12T01:32:26;1.43;;;1.33;;
6785;SDS011;3430;51.192;6.048;2022-07-12T01:34:59;1.40;;;1.30;;
6785;SDS011;3430;51.192;6.048;2022-07-12T01:37:25;1.50;;;1.40;;
6785;SDS011;3430;51.192;6.048;2022-07-12T01:39:53;1.40;;;1.30;;
6785;SDS011;3430;51.192;6.048;2022-07-12T01:42:20;1.30;;;1.20;;
6785;SDS011;3430;51.192;6.048;2022-07-12T01:44:45;1.40;;;1.30;;
6785;SDS011;3430;51.192;6.048;2022-07-12T01:47:11;1.60;;;1.50;;
6785;SDS011;3430;51.192;6.048;2022-07-12T01:49:36;1.30;;;1.20;;
6785;SDS011;3430;51.192;6.048;2022-07-12T01:52:01;1.47;;;1.37;;
6785;SDS011;3430;51.192;6.048;2022-07-12T01:54:27;1.23;;;1.13;;
6785;SDS011;3430;51.192;6.048;2022-07-12T01:56:52;1.23;;;1.13;;
6785;SDS011;3430;51.192;6.048;2022-07-12T01:59:21;1.47;;;1.20;;
6785;SDS011;3430;51.192;6.048;2022-07-12T02:01:46;1.83;;;1.20;;
6785;SDS011;3430;51.192;6.048;2022-07-12T02:04:11;1.63;;;1.53;;
6785;SDS011;3430;51.192;6.048;2022-07-12T02:06:37;1.43;;;1.33;;
6785;SDS011;3430;51.192;6.048;2022-07-12T02:09:03;1.27;;;1.17;;
6785;SDS011;3430;51.192;6.048;2022-07-12T02:11:29;1.30;;;1.20;;
6785;SDS011;3430;51.192;6.048;2022-07-12T02:13:54;1.43;;;1.33;;
6785;SDS011;3430;51.192;6.048;2022-07-12T02:16:19;1.33;;;1.23;;
6785;SDS011;3430;51.192;6.048;2022-07-12T02:18:45;1.30;;;1.20;;
6785;SDS011;3430;51.192;6.048;2022-07-12T02:21:10;1.07;;;1.07;;
6785;SDS011;3430;51.192;6.048;2022-07-12T02:23:35;1.30;;;1.20;;
6785;SDS011;3430;51.192;6.048;2022-07-12T02:26:01;1.37;;;1.10;;
6785;SDS011;3430;51.192;6.048;2022-07-12T02:28:26;1.30;;;1.20;;
6785;SDS011;3430;51.192;6.048;2022-07-12T02:30:52;1.20;;;1.10;;
6785;SDS011;3430;51.192;6.048;2022-07-12T02:33:17;1.17;;;1.17;;
6785;SDS011;3430;51.192;6.048;2022-07-12T02:35:44;1.40;;;1.30;;
6785;SDS011;3430;51.192;6.048;2022-07-12T02:38:10;1.37;;;1.27;;
6785;SDS011;3430;51.192;6.048;2022-07-12T02:40:36;1.20;;;1.10;;
6785;SDS011;3430;51.192;6.048;2022-07-12T02:45:45;1.30;;;1.20;;
6785;SDS011;3430;51.192;6.048;2022-07-12T02:48:10;1.27;;;1.17;;
6785;SDS011;3430;51.192;6.048;2022-07-12T02:50:37;1.23;;;1.13;;
6785;SDS011;3430;51.192;6.048;2022-07-12T02:53:03;1.17;;;1.10;;
6785;SDS011;3430;51.192;6.048;2022-07-12T02:55:29;1.23;;;1.13;;
6785;SDS011;3430;51.192;6.048;2022-07-12T02:57:54;1.60;;;1.50;;
6785;SDS011;3430;51.192;6.048;2022-07-12T03:00:19;1.30;;;1.20;;
6785;SDS011;3430;51.192;6.048;2022-07-12T03:02:45;1.17;;;1.07;;
6785;SDS011;3430;51.192;6.048;2022-07-12T03:05:10;1.30;;;1.20;;
6785;SDS011;3430;51.192;6.048;2022-07-12T03:07:35;1.53;;;1.40;;
6785;SDS011;3430;51.192;6.048;2022-07-12T03:10:01;1.27;;;1.17;;
6785;SDS011;3430;51.192;6.048;2022-07-12T03:12:26;1.00;;;1.00;;
6785;SDS011;3430;51.192;6.048;2022-07-12T03:14:51;1.30;;;1.20;;
6785;SDS011;3430;51.192;6.048;2022-07-12T03:17:17;1.40;;;1.30;;
6785;SDS011;3430;51.192;6.048;2022-07-12T03:19:42;1.13;;;1.00;;
6785;SDS011;3430;51.192;6.048;2022-07-12T03:22:07;1.10;;;1.10;;
6785;SDS011;3430;51.192;6.048;2022-07-12T03:24:33;1.20;;;1.10;;
6785;SDS011;3430;51.192;6.048;2022-07-12T03:26:58;1.50;;;1.40;;
6785;SDS011;3430;51.192;6.048;2022-07-12T03:29:23;1.50;;;1.40;;
6785;SDS011;3430;51.192;6.048;2022-07-12T03:31:49;1.40;;;1.30;;
6785;SDS011;3430;51.192;6.048;2022-07-12T03:34:14;2.83;;;1.40;;
6785;SDS011;3430;51.192;6.048;2022-07-12T03:36:39;1.30;;;1.20;;
6785;SDS011;3430;51.192;6.048;2022-07-12T03:39:05;1.30;;;1.20;;
6785;SDS011;3430;51.192;6.048;2022-07-12T03:41:30;1.40;;;1.30;;
6785;SDS011;3430;51.192;6.048;2022-07-12T03:43:55;1.30;;;1.20;;
6785;SDS011;3430;51.192;6.048;2022-07-12T03:46:21;1.33;;;1.23;;
6785;SDS011;3430;51.192;6.048;2022-07-12T03:48:46;1.27;;;1.17;;
6785;SDS011;3430;51.192;6.048;2022-07-12T03:51:11;1.40;;;1.30;;
6785;SDS011;3430;51.192;6.048;2022-07-12T03:53:37;1.37;;;1.27;;
6785;SDS011;3430;51.192;6.048;2022-07-12T03:56:02;1.30;;;1.20;;
6785;SDS011;3430;51.192;6.048;2022-07-12T03:58:27;1.20;;;1.10;;
6785;SDS011;3430;51.192;6.048;2022-07-12T04:00:53;1.40;;;1.30;;
6785;SDS011;3430;51.192;6.048;2022-07-12T04:03:18;1.07;;;1.07;;
6785;SDS011;3430;51.192;6.048;2022-07-12T04:05:43;1.40;;;1.30;;
6785;SDS011;3430;51.192;6.048;2022-07-12T04:08:09;1.20;;;1.10;;
6785;SDS011;3430;51.192;6.048;2022-07-12T04:10:34;1.77;;;1.20;;
6785;SDS011;3430;51.192;6.048;2022-07-12T04:13:00;1.30;;;1.20;;
6785;SDS011;3430;51.192;6.048;2022-07-12T04:15:25;1.60;;;1.50;;
6785;SDS011;3430;51.192;6.048;2022-07-12T04:17:50;1.57;;;1.20;;
6785;SDS011;3430;51.192;6.048;2022-07-12T04:20:16;1.50;;;1.40;;
6785;SDS011;3430;51.192;6.048;2022-07-12T04:22:41;1.17;;;1.10;;
6785;SDS011;3430;51.192;6.048;2022-07-12T04:25:07;2.50;;;1.27;;
6785;SDS011;3430;51.192;6.048;2022-07-12T04:27:33;1.53;;;1.10;;
6785;SDS011;3430;51.192;6.048;2022-07-12T04:29:58;1.40;;;1.30;;
6785;SDS011;3430;51.192;6.048;2022-07-12T04:32:23;1.20;;;1.10;;
6785;SDS011;3430;51.192;6.048;2022-07-12T04:34:49;1.73;;;1.10;;
6785;SDS011;3430;51.192;6.048;2022-07-12T04:37:14;1.27;;;1.17;;
6785;SDS011;3430;51.192;6.048;2022-07-12T04:39:39;1.30;;;1.20;;
6785;SDS011;3430;51.192;6.048;2022-07-12T04:42:05;1.40;;;1.30;;
6785;SDS011;3430;51.192;6.048;2022-07-12T04:44:30;1.80;;;1.30;;
6785;SDS011;3430;51.192;6.048;2022-07-12T04:46:55;1.30;;;1.20;;
6785;SDS011;3430;51.192;6.048;2022-07-12T04:49:21;1.13;;;1.10;;
6785;SDS011;3430;51.192;6.048;2022-07-12T04:51:46;1.37;;;1.27;;
6785;SDS011;3430;51.192;6.048;2022-07-12T04:54:11;1.83;;;1.47;;
6785;SDS011;3430;51.192;6.048;2022-07-12T04:56:37;1.30;;;1.20;;
6785;SDS011;3430;51.192;6.048;2022-07-12T04:59:02;1.37;;;1.27;;
6785;SDS011;3430;51.192;6.048;2022-07-12T05:01:28;1.80;;;1.40;;
6785;SDS011;3430;51.192;6.048;2022-07-12T05:03:54;1.93;;;1.40;;
6785;SDS011;3430;51.192;6.048;2022-07-12T05:06:19;1.50;;;1.40;;
6785;SDS011;3430;51.192;6.048;2022-07-12T05:08:44;1.50;;;1.40;;
6785;SDS011;3430;51.192;6.048;2022-07-12T05:11:10;1.60;;;1.30;;
6785;SDS011;3430;51.192;6.048;2022-07-12T05:13:35;1.70;;;1.30;;
6785;SDS011;3430;51.192;6.048;2022-07-12T05:16:00;1.80;;;1.63;;
6785;SDS011;3430;51.192;6.048;2022-07-12T05:18:25;2.53;;;1.30;;
6785;SDS011;3430;51.192;6.048;2022-07-12T05:20:51;1.50;;;1.40;;
6785;SDS011;3430;51.192;6.048;2022-07-12T05:23:16;1.50;;;1.40;;
6785;SDS011;3430;51.192;6.048;2022-07-12T05:25:42;1.50;;;1.40;;
6785;SDS011;3430;51.192;6.048;2022-07-12T05:28:07;1.53;;;1.43;;
6785;SDS011;3430;51.192;6.048;2022-07-12T05:30:32;3.73;;;1.30;;
6785;SDS011;3430;51.192;6.048;2022-07-12T05:32:58;2.57;;;1.40;;
6785;SDS011;3430;51.192;6.048;2022-07-12T05:35:23;1.60;;;1.50;;
6785;SDS011;3430;51.192;6.048;2022-07-12T05:37:48;1.70;;;1.60;;
6785;SDS011;3430;51.192;6.048;2022-07-12T05:40:14;1.40;;;1.30;;
6785;SDS011;3430;51.192;6.048;2022-07-12T05:42:39;1.50;;;1.40;;
6785;SDS011;3430;51.192;6.048;2022-07-12T05:45:05;3.37;;;1.40;;
6785;SDS011;3430;51.192;6.048;2022-07-12T05:47:31;1.30;;;1.20;;
6785;SDS011;3430;51.192;6.048;2022-07-12T05:49:56;1.50;;;1.40;;
6785;SDS011;3430;51.192;6.048;2022-07-12T05:52:21;2.30;;;1.90;;
6785;SDS011;3430;51.192;6.048;2022-07-12T05:55:05;1.93;;;1.83;;
6785;SDS011;3430;51.192;6.048;2022-07-12T05:57:31;1.70;;;1.60;;
6785;SDS011;3430;51.192;6.048;2022-07-12T05:59:56;3.07;;;1.80;;
6785;SDS011;3430;51.192;6.048;2022-07-12T06:02:22;1.97;;;1.77;;
6785;SDS011;3430;51.192;6.048;2022-07-12T06:04:47;1.73;;;1.63;;
6785;SDS011;3430;51.192;6.048;2022-07-12T06:07:13;1.83;;;1.50;;
6785;SDS011;3430;51.192;6.048;2022-07-12T06:09:38;1.80;;;1.70;;
6785;SDS011;3430;51.192;6.048;2022-07-12T06:12:04;1.60;;;1.50;;
6785;SDS011;3430;51.192;6.048;2022-07-12T06:14:29;2.23;;;1.70;;
6785;SDS011;3430;51.192;6.048;2022-07-12T06:16:55;1.70;;;1.60;;
6785;SDS011;3430;51.192;6.048;2022-07-12T06:19:20;3.77;;;1.57;;
6785;SDS011;3430;51.192;6.048;2022-07-12T06:21:48;1.43;;;1.33;;
6785;SDS011;3430;51.192;6.048;2022-07-12T06:24:13;1.50;;;1.40;;
6785;SDS011;3430;51.192;6.048;2022-07-12T06:26:39;4.73;;;1.33;;
6785;SDS011;3430;51.192;6.048;2022-07-12T06:29:04;2.00;;;1.40;;
6785;SDS011;3430;51.192;6.048;2022-07-12T06:31:30;1.40;;;1.20;;
6785;SDS011;3430;51.192;6.048;2022-07-12T06:33:55;2.00;;;1.57;;
6785;SDS011;3430;51.192;6.048;2022-07-12T06:36:21;1.67;;;1.40;;
6785;SDS011;3430;51.192;6.048;2022-07-12T06:38:46;2.13;;;1.60;;
6785;SDS011;3430;51.192;6.048;2022-07-12T06:41:11;2.67;;;1.50;;
6785;SDS011;3430;51.192;6.048;2022-07-12T06:43:37;2.20;;;1.83;;
6785;SDS011;3430;51.192;6.048;2022-07-12T06:46:02;2.70;;;1.90;;
6785;SDS011;3430;51.192;6.048;2022-07-12T06:48:27;1.63;;;1.53;;
6785;SDS011;3430;51.192;6.048;2022-07-12T06:50:53;2.10;;;1.90;;
6785;SDS011;3430;51.192;6.048;2022-07-12T06:53:19;2.30;;;2.00;;
6785;SDS011;3430;51.192;6.048;2022-07-12T06:55:45;4.40;;;2.33;;
6785;SDS011;3430;51.192;6.048;2022-07-12T06:58:10;2.30;;;2.10;;
6785;SDS011;3430;51.192;6.048;2022-07-12T07:00:35;6.47;;;1.97;;
6785;SDS011;3430;51.192;6.048;2022-07-12T07:03:01;3.17;;;2.00;;
6785;SDS011;3430;51.192;6.048;2022-07-12T07:05:27;2.00;;;1.70;;
6785;SDS011;3430;51.192;6.048;2022-07-12T07:07:52;2.90;;;2.00;;
6785;SDS011;3430;51.192;6.048;2022-07-12T07:10:17;3.73;;;1.90;;
6785;SDS011;3430;51.192;6.048;2022-07-12T07:12:43;2.90;;;1.87;;
6785;SDS011;3430;51.192;6.048;2022-07-12T07:15:08;5.13;;;2.00;;
6785;SDS011;3430;51.192;6.048;2022-07-12T07:17:34;4.30;;;1.93;;
6785;SDS011;3430;51.192;6.048;2022-07-12T07:19:59;2.20;;;2.00;;
6785;SDS011;3430;51.192;6.048;2022-07-12T07:22:25;2.80;;;1.60;;
6785;SDS011;3430;51.192;6.048;2022-07-12T07:24:50;1.60;;;1.50;;
6785;SDS011;3430;51.192;6.048;2022-07-12T07:27:15;3.60;;;2.30;;
6785;SDS011;3430;51.192;6.048;2022-07-12T07:29:41;2.37;;;1.90;;
6785;SDS011;3430;51.192;6.048;2022-07-12T07:32:25;2.03;;;1.90;;
6785;SDS011;3430;51.192;6.048;2022-07-12T07:34:50;5.00;;;1.90;;
6785;SDS011;3430;51.192;6.048;2022-07-12T07:37:15;2.97;;;2.37;;
6785;SDS011;3430;51.192;6.048;2022-07-12T07:39:41;3.10;;;2.20;;
6785;SDS011;3430;51.192;6.048;2022-07-12T07:42:07;2.33;;;1.90;;
6785;SDS011;3430;51.192;6.048;2022-07-12T07:44:32;3.30;;;2.17;;
6785;SDS011;3430;51.192;6.048;2022-07-12T07:46:57;2.67;;;1.80;;
6785;SDS011;3430;51.192;6.048;2022-07-12T07:49:23;4.07;;;2.23;;
6785;SDS011;3430;51.192;6.048;2022-07-12T07:51:48;2.87;;;2.30;;
6785;SDS011;3430;51.192;6.048;2022-07-12T07:54:14;3.43;;;2.10;;
6785;SDS011;3430;51.192;6.048;2022-07-12T07:56:39;10.87;;;2.30;;
6785;SDS011;3430;51.192;6.048;2022-07-12T07:59:04;2.50;;;2.30;;
6785;SDS011;3430;51.192;6.048;2022-07-12T08:01:31;2.43;;;2.00;;
6785;SDS011;3430;51.192;6.048;2022-07-12T08:04:14;2.93;;;2.47;;
6785;SDS011;3430;51.192;6.048;2022-07-12T08:06:39;2.13;;;1.80;;
6785;SDS011;3430;51.192;6.048;2022-07-12T08:09:05;2.40;;;2.20;;
6785;SDS011;3430;51.192;6.048;2022-07-12T08:11:30;5.33;;;2.00;;
6785;SDS011;3430;51.192;6.048;2022-07-12T08:13:56;3.73;;;2.53;;
6785;SDS011;3430;51.192;6.048;2022-07-12T08:16:21;2.63;;;2.30;;
6785;SDS011;3430;51.192;6.048;2022-07-12T08:18:47;2.43;;;2.23;;
6785;SDS011;3430;51.192;6.048;2022-07-12T08:21:12;3.30;;;2.30;;
6785;SDS011;3430;51.192;6.048;2022-07-12T08:23:37;2.57;;;2.37;;
6785;SDS011;3430;51.192;6.048;2022-07-12T08:26:03;2.23;;;2.03;;
6785;SDS011;3430;51.192;6.048;2022-07-12T08:28:28;6.10;;;2.33;;
6785;SDS011;3430;51.192;6.048;2022-07-12T08:30:53;2.60;;;2.13;;
6785;SDS011;3430;51.192;6.048;2022-07-12T08:33:19;3.87;;;2.80;;
6785;SDS011;3430;51.192;6.048;2022-07-12T08:35:44;3.83;;;2.50;;
6785;SDS011;3430;51.192;6.048;2022-07-12T08:38:10;2.97;;;2.40;;
6785;SDS011;3430;51.192;6.048;2022-07-12T08:40:35;2.47;;;2.27;;
6785;SDS011;3430;51.192;6.048;2022-07-12T08:43:01;3.40;;;2.60;;
6785;SDS011;3430;51.192;6.048;2022-07-12T08:45:27;3.63;;;2.60;;
6785;SDS011;3430;51.192;6.048;2022-07-12T08:47:52;3.40;;;2.50;;
6785;SDS011;3430;51.192;6.048;2022-07-12T08:50:18;2.30;;;2.10;;
6785;SDS011;3430;51.192;6.048;2022-07-12T08:52:47;2.80;;;2.40;;
6785;SDS011;3430;51.192;6.048;2022-07-12T08:57:48;3.03;;;2.40;;
6785;SDS011;3430;51.192;6.048;2022-07-12T09:00:13;2.60;;;2.40;;
6785;SDS011;3430;51.192;6.048;2022-07-12T09:02:52;2.93;;;2.63;;
6785;SDS011;3430;51.192;6.048;2022-07-12T09:05:19;2.83;;;2.50;;
6785;SDS011;3430;51.192;6.048;2022-07-12T09:07:44;3.00;;;2.50;;
6785;SDS011;3430;51.192;6.048;2022-07-12T09:10:10;2.63;;;2.43;;
6785;SDS011;3430;51.192;6.048;2022-07-12T09:12:36;4.17;;;2.40;;
6785;SDS011;3430;51.192;6.048;2022-07-12T09:15:15;6.10;;;2.60;;
6785;SDS011;3430;51.192;6.048;2022-07-12T09:17:42;3.90;;;2.50;;
6785;SDS011;3430;51.192;6.048;2022-07-12T09:20:11;3.50;;;2.40;;
6785;SDS011;3430;51.192;6.048;2022-07-12T09:22:36;2.73;;;2.33;;
6785;SDS011;3430;51.192;6.048;2022-07-12T09:25:08;3.67;;;2.50;;
6785;SDS011;3430;51.192;6.048;2022-07-12T09:27:34;2.20;;;2.10;;
6785;SDS011;3430;51.192;6.048;2022-07-12T09:29:59;2.80;;;2.60;;
6785;SDS011;3430;51.192;6.048;2022-07-12T09:32:25;2.77;;;2.43;;
6785;SDS011;3430;51.192;6.048;2022-07-12T09:35:09;2.43;;;2.20;;
6785;SDS011;3430;51.192;6.048;2022-07-12T09:37:53;2.30;;;2.10;;
6785;SDS011;3430;51.192;6.048;2022-07-12T09:40:18;2.60;;;2.40;;
6785;SDS011;3430;51.192;6.048;2022-07-12T09:42:45;2.60;;;2.30;;
6785;SDS011;3430;51.192;6.048;2022-07-12T09:45:11;4.03;;;2.30;;
6785;SDS011;3430;51.192;6.048;2022-07-12T09:47:36;2.50;;;2.30;;
6785;SDS011;3430;51.192;6.048;2022-07-12T09:50:03;2.77;;;2.20;;
6785;SDS011;3430;51.192;6.048;2022-07-12T09:52:28;3.07;;;2.20;;
6785;SDS011;3430;51.192;6.048;2022-07-12T09:54:55;3.43;;;2.50;;
6785;SDS011;3430;51.192;6.048;2022-07-12T09:57:30;3.03;;;2.47;;
6785;SDS011;3430;51.192;6.048;2022-07-12T09:59:59;3.97;;;2.47;;
6785;SDS011;3430;51.192;6.048;2022-07-12T10:02:25;2.60;;;2.40;;
6785;SDS011;3430;51.192;6.048;2022-07-12T10:04:51;2.40;;;2.20;;
6785;SDS011;3430;51.192;6.048;2022-07-12T10:07:17;3.33;;;2.10;;
6785;SDS011;3430;51.192;6.048;2022-07-12T10:09:43;3.30;;;2.20;;
6785;SDS011;3430;51.192;6.048;2022-07-12T10:12:09;3.13;;;2.17;;
6785;SDS011;3430;51.192;6.048;2022-07-12T10:14:35;2.63;;;2.40;;
6785;SDS011;3430;51.192;6.048;2022-07-12T10:17:01;2.37;;;2.10;;
6785;SDS011;3430;51.192;6.048;2022-07-12T10:19:29;2.87;;;2.60;;
6785;SDS011;3430;51.192;6.048;2022-07-12T10:21:57;3.00;;;2.13;;
6785;SDS011;3430;51.192;6.048;2022-07-12T10:26:57;5.00;;;2.43;;
6785;SDS011;3430;51.192;6.048;2022-07-12T10:29:23;2.60;;;2.30;;
6785;SDS011;3430;51.192;6.048;2022-07-12T10:31:50;3.37;;;2.20;;
6785;SDS011;3430;51.192;6.048;2022-07-12T10:34:22;2.40;;;2.20;;
6785;SDS011;3430;51.192;6.048;2022-07-12T10:39:20;4.40;;;2.47;;
6785;SDS011;3430;51.192;6.048;2022-07-12T10:42:08;3.47;;;2.30;;
6785;SDS011;3430;51.192;6.048;2022-07-12T10:44:39;2.00;;;1.80;;
6785;SDS011;3430;51.192;6.048;2022-07-12T10:47:06;2.43;;;2.20;;
6785;SDS011;3430;51.192;6.048;2022-07-12T10:49:32;2.60;;;2.40;;
6785;SDS011;3430;51.192;6.048;2022-07-12T10:54:37;3.07;;;1.93;;
6785;SDS011;3430;51.192;6.048;2022-07-12T10:57:02;2.83;;;2.20;;
6785;SDS011;3430;51.192;6.048;2022-07-12T10:59:28;1.90;;;1.80;;
6785;SDS011;3430;51.192;6.048;2022-07-12T11:01:55;2.27;;;2.07;;
6785;SDS011;3430;51.192;6.048;2022-07-12T11:04:20;3.60;;;2.13;;
6785;SDS011;3430;51.192;6.048;2022-07-12T11:06:48;2.13;;;1.93;;
6785;SDS011;3430;51.192;6.048;2022-07-12T11:09:16;2.00;;;1.80;;
6785;SDS011;3430;51.192;6.048;2022-07-12T11:14:08;1.97;;;1.87;;
6785;SDS011;3430;51.192;6.048;2022-07-12T11:16:34;2.40;;;2.20;;
6785;SDS011;3430;51.192;6.048;2022-07-12T11:18:59;3.50;;;1.80;;
6785;SDS011;3430;51.192;6.048;2022-07-12T11:21:25;2.67;;;2.20;;
6785;SDS011;3430;51.192;6.048;2022-07-12T11:23:50;6.83;;;2.27;;
6785;SDS011;3430;51.192;6.048;2022-07-12T11:26:16;2.07;;;1.87;;
6785;SDS011;3430;51.192;6.048;2022-07-12T11:28:42;1.97;;;1.70;;
6785;SDS011;3430;51.192;6.048;2022-07-12T11:31:09;1.83;;;1.73;;
6785;SDS011;3430;51.192;6.048;2022-07-12T11:33:36;2.53;;;2.20;;
6785;SDS011;3430;51.192;6.048;2022-07-12T11:36:05;3.33;;;2.50;;
6785;SDS011;3430;51.192;6.048;2022-07-12T11:38:31;2.13;;;1.93;;
6785;SDS011;3430;51.192;6.048;2022-07-12T11:41:00;2.03;;;1.90;;
6785;SDS011;3430;51.192;6.048;2022-07-12T11:43:26;2.40;;;1.97;;
6785;SDS011;3430;51.192;6.048;2022-07-12T11:45:52;3.00;;;1.93;;
6785;SDS011;3430;51.192;6.048;2022-07-12T11:48:18;2.23;;;2.03;;
6785;SDS011;3430;51.192;6.048;2022-07-12T11:50:44;2.30;;;2.10;;
6785;SDS011;3430;51.192;6.048;2022-07-12T11:55:43;2.67;;;2.07;;
6785;SDS011;3430;51.192;6.048;2022-07-12T11:58:09;2.47;;;2.03;;
6785;SDS011;3430;51.192;6.048;2022-07-12T12:00:34;1.93;;;1.80;;
6785;SDS011;3430;51.192;6.048;2022-07-12T12:03:00;2.17;;;1.83;;
6785;SDS011;3430;51.192;6.048;2022-07-12T12:05:25;1.90;;;1.70;;
6785;SDS011;3430;51.192;6.048;2022-07-12T12:07:51;2.47;;;2.23;;
6785;SDS011;3430;51.192;6.048;2022-07-12T12:10:16;2.47;;;1.90;;
6785;SDS011;3430;51.192;6.048;2022-07-12T12:12:46;2.20;;;2.00;;
6785;SDS011;3430;51.192;6.048;2022-07-12T12:15:12;2.90;;;2.10;;
6785;SDS011;3430;51.192;6.048;2022-07-12T12:17:42;2.27;;;1.93;;
6785;SDS011;3430;51.192;6.048;2022-07-12T12:20:12;2.10;;;1.90;;
6785;SDS011;3430;51.192;6.048;2022-07-12T12:22:38;2.20;;;1.90;;
6785;SDS011;3430;51.192;6.048;2022-07-12T12:25:04;2.17;;;1.97;;
6785;SDS011;3430;51.192;6.048;2022-07-12T12:27:30;2.83;;;2.50;;
6785;SDS011;3430;51.192;6.048;2022-07-12T12:30:05;2.03;;;1.80;;
6785;SDS011;3430;51.192;6.048;2022-07-12T12:32:42;2.00;;;1.90;;
6785;SDS011;3430;51.192;6.048;2022-07-12T12:35:08;3.47;;;2.00;;
6785;SDS011;3430;51.192;6.048;2022-07-12T12:37:33;2.00;;;1.73;;
6785;SDS011;3430;51.192;6.048;2022-07-12T12:39:58;1.83;;;1.73;;
6785;SDS011;3430;51.192;6.048;2022-07-12T12:42:24;1.90;;;1.80;;
6785;SDS011;3430;51.192;6.048;2022-07-12T12:44:52;2.30;;;2.10;;
6785;SDS011;3430;51.192;6.048;2022-07-12T12:47:18;2.00;;;1.80;;
6785;SDS011;3430;51.192;6.048;2022-07-12T12:49:55;1.97;;;1.77;;
6785;SDS011;3430;51.192;6.048;2022-07-12T12:52:22;2.13;;;1.93;;
6785;SDS011;3430;51.192;6.048;2022-07-12T12:54:48;2.03;;;1.80;;
6785;SDS011;3430;51.192;6.048;2022-07-12T12:57:13;1.90;;;1.73;;
6785;SDS011;3430;51.192;6.048;2022-07-12T12:59:38;2.10;;;1.90;;
6785;SDS011;3430;51.192;6.048;2022-07-12T13:02:05;2.17;;;1.90;;
6785;SDS011;3430;51.192;6.048;2022-07-12T13:04:33;2.10;;;1.90;;
6785;SDS011;3430;51.192;6.048;2022-07-12T13:06:59;1.67;;;1.50;;
6785;SDS011;3430;51.192;6.048;2022-07-12T13:09:26;2.80;;;2.00;;
6785;SDS011;3430;51.192;6.048;2022-07-12T13:11:51;2.07;;;1.90;;
6785;SDS011;3430;51.192;6.048;2022-07-12T13:14:16;2.10;;;1.90;;
6785;SDS011;3430;51.192;6.048;2022-07-12T13:16:42;3.07;;;1.70;;
6785;SDS011;3430;51.192;6.048;2022-07-12T13:19:07;1.73;;;1.63;;
6785;SDS011;3430;51.192;6.048;2022-07-12T13:21:33;1.97;;;1.87;;
6785;SDS011;3430;51.192;6.048;2022-07-12T13:23:58;3.23;;;1.50;;
6785;SDS011;3430;51.192;6.048;2022-07-12T13:26:24;1.97;;;1.73;;
6785;SDS011;3430;51.192;6.048;2022-07-12T13:28:49;2.10;;;1.83;;
6785;SDS011;3430;51.192;6.048;2022-07-12T13:31:14;2.13;;;1.70;;
6785;SDS011;3430;51.192;6.048;2022-07-12T13:33:40;1.60;;;1.50;;
6785;SDS011;3430;51.192;6.048;2022-07-12T13:36:06;1.90;;;1.70;;
6785;SDS011;3430;51.192;6.048;2022-07-12T13:38:34;2.10;;;1.90;;
6785;SDS011;3430;51.192;6.048;2022-07-12T13:40:59;1.83;;;1.73;;
6785;SDS011;3430;51.192;6.048;2022-07-12T13:43:24;2.00;;;1.80;;
6785;SDS011;3430;51.192;6.048;2022-07-12T13:45:50;1.70;;;1.60;;
6785;SDS011;3430;51.192;6.048;2022-07-12T13:48:16;1.53;;;1.43;;
6785;SDS011;3430;51.192;6.048;2022-07-12T13:50:41;2.27;;;1.63;;
6785;SDS011;3430;51.192;6.048;2022-07-12T13:53:07;1.80;;;1.70;;
6785;SDS011;3430;51.192;6.048;2022-07-12T13:55:33;2.50;;;1.93;;
6785;SDS011;3430;51.192;6.048;2022-07-12T13:57:58;1.50;;;1.40;;
6785;SDS011;3430;51.192;6.048;2022-07-12T14:00:24;1.67;;;1.57;;
6785;SDS011;3430;51.192;6.048;2022-07-12T14:02:50;1.57;;;1.47;;
6785;SDS011;3430;51.192;6.048;2022-07-12T14:05:15;3.03;;;1.80;;
6785;SDS011;3430;51.192;6.048;2022-07-12T14:07:42;1.93;;;1.73;;
6785;SDS011;3430;51.192;6.048;2022-07-12T14:10:08;1.90;;;1.77;;
6785;SDS011;3430;51.192;6.048;2022-07-12T14:12:33;1.77;;;1.67;;
6785;SDS011;3430;51.192;6.048;2022-07-12T14:14:59;6.00;;;2.70;;
6785;SDS011;3430;51.192;6.048;2022-07-12T14:20:06;1.73;;;1.63;;
6785;SDS011;3430;51.192;6.048;2022-07-12T14:22:32;4.00;;;1.77;;
6785;SDS011;3430;51.192;6.048;2022-07-12T14:24:58;1.70;;;1.57;;
6785;SDS011;3430;51.192;6.048;2022-07-12T14:27:23;1.73;;;1.63;;
6785;SDS011;3430;51.192;6.048;2022-07-12T14:29:48;2.33;;;1.60;;
6785;SDS011;3430;51.192;6.048;2022-07-12T14:32:14;1.70;;;1.60;;
6785;SDS011;3430;51.192;6.048;2022-07-12T14:34:39;1.90;;;1.60;;
6785;SDS011;3430;51.192;6.048;2022-07-12T14:37:04;2.30;;;2.10;;
6785;SDS011;3430;51.192;6.048;2022-07-12T14:39:30;1.73;;;1.63;;
6785;SDS011;3430;51.192;6.048;2022-07-12T14:41:55;2.00;;;1.47;;
6785;SDS011;3430;51.192;6.048;2022-07-12T14:44:21;1.73;;;1.63;;
6785;SDS011;3430;51.192;6.048;2022-07-12T14:46:46;1.70;;;1.60;;
6785;SDS011;3430;51.192;6.048;2022-07-12T14:49:12;2.10;;;1.80;;
6785;SDS011;3430;51.192;6.048;2022-07-12T14:51:37;4.03;;;1.60;;
6785;SDS011;3430;51.192;6.048;2022-07-12T14:54:02;3.80;;;1.90;;
6785;SDS011;3430;51.192;6.048;2022-07-12T14:56:28;2.50;;;1.67;;
6785;SDS011;3430;51.192;6.048;2022-07-12T14:58:53;1.60;;;1.50;;
6785;SDS011;3430;51.192;6.048;2022-07-12T15:01:18;1.60;;;1.50;;
6785;SDS011;3430;51.192;6.048;2022-07-12T15:03:44;1.70;;;1.60;;
6785;SDS011;3430;51.192;6.048;2022-07-12T15:06:09;2.43;;;1.60;;
6785;SDS011;3430;51.192;6.048;2022-07-12T15:08:34;1.70;;;1.57;;
6785;SDS011;3430;51.192;6.048;2022-07-12T15:11:00;1.70;;;1.60;;
6785;SDS011;3430;51.192;6.048;2022-07-12T15:13:27;1.50;;;1.40;;
6785;SDS011;3430;51.192;6.048;2022-07-12T15:15:54;1.97;;;1.53;;
6785;SDS011;3430;51.192;6.048;2022-07-12T15:18:19;1.80;;;1.70;;
6785;SDS011;3430;51.192;6.048;2022-07-12T15:20:44;1.43;;;1.33;;
6785;SDS011;3430;51.192;6.048;2022-07-12T15:23:10;1.87;;;1.53;;
6785;SDS011;3430;51.192;6.048;2022-07-12T15:25:35;1.50;;;1.40;;
6785;SDS011;3430;51.192;6.048;2022-07-12T15:28:00;1.63;;;1.50;;
6785;SDS011;3430;51.192;6.048;2022-07-12T15:30:26;1.60;;;1.50;;